Hauptseite
METAR-TAF:

METAR-TAF

Flughäfen :

Bocas del Toro, Panama

Breite: 09-21N, Länge: 082-15W, Höhe: 3 m

Beobachtung

Neuester Wetterbericht von vor 8 Stunden und 13 Minuten, um 19:00 UTC
Wind 6 kt aus Nord/Nordost
Temperatur 30°C
Luftfeuchtigkeit 84%
Luftdruck 1009 hPa
Sichtweite 10 km oder mehr
Aufgelockert bewölkt in der Höhe von 3000 ft
Aufgelockert bewölkt in der Höhe von 8000 ft

METAR: MPBO 171900Z 03006KT 9999 SCT030 SCT080 30/27 Q1009

Zeit: 22:13 (03:13 UTC)


TAF: fehlend

Wetterbeobachtungen und Prognosen von mehr als 4000 Flughäfen (METAR und TAF Bericht).

Die verfügbaren Stationen werden durch gelbe und rote Markierungen auf der Karte dargestellt.

Führen Sie die Maus auf sie, um den Namen der Station zu sehen.

Darauf klicken, um die Beobachtung von Wetterbeobachtungen und Prognosen zu sehen.

Um die Karte zu ändern : klicken Sie auf den grünen Tasten mit einem schwarzen Kreuz Zum Vergrößern, auf den grünen Button mit einem Gedankenstrich zu verkleinern, oder auf die grünen Pfeile für benachbarte Karten.


METAR-TAF: